Time;durP1;ratioP1;P1;durP2;ratioP2;P2;SDS_P1;SDS_P2;PMS_P1;PMS_P2;Temp;Humidity;BMP_temperature;BMP_pressure;BME280_temperature;BME280_humidity;BME280_pressure;Samples;Min_cycle;Max_cycle;Signal;HPM_P1;HPM_P2
2022/11/16 00:01:25;;;;;;;3.80;2.50;;;8.90;99.90;;;;;;5017607;28;20319;-89
2022/11/16 00:03:58;;;;;;;3.23;2.30;;;8.90;99.90;;;;;;5017581;28;20209;-89
2022/11/16 00:06:29;;;;;;;3.37;2.37;;;8.80;99.90;;;;;;5017011;28;20201;-89
2022/11/16 00:11:51;;;;;;;3.67;2.90;;;8.70;99.90;;;;;;5017330;28;20283;-90
2022/11/16 00:14:23;;;;;;;3.40;2.67;;;8.60;99.90;;;;;;5017483;28;20281;-90
2022/11/16 00:16:56;;;;;;;4.10;2.67;;;8.50;99.90;;;;;;5019433;28;20242;-88
2022/11/16 00:19:27;;;;;;;5.40;2.90;;;8.40;99.90;;;;;;5019945;28;20300;-89
2022/11/16 00:21:58;;;;;;;4.73;3.20;;;8.30;99.90;;;;;;5035801;28;20283;-91
2022/11/16 00:24:28;;;;;;;5.47;3.23;;;8.20;99.90;;;;;;5035701;28;20237;-90
2022/11/16 00:26:59;;;;;;;4.67;3.13;;;8.10;99.90;;;;;;5031252;28;20226;-89
2022/11/16 00:29:30;;;;;;;4.93;3.10;;;8.00;99.90;;;;;;5007052;28;20216;-89
2022/11/16 00:32:02;;;;;;;6.13;3.47;;;7.90;99.90;;;;;;5015303;28;20198;-90
2022/11/16 00:34:33;;;;;;;4.43;3.33;;;7.70;99.90;;;;;;5022622;28;20246;-89
2022/11/16 00:37:03;;;;;;;7.17;3.60;;;7.70;99.90;;;;;;5020117;28;20244;-90
2022/11/16 00:39:34;;;;;;;5.33;2.83;;;7.60;99.90;;;;;;5017400;28;20280;-90
2022/11/16 00:42:05;;;;;;;4.03;2.83;;;7.50;99.90;;;;;;5016505;28;20237;-89
2022/11/16 00:44:36;;;;;;;6.17;3.07;;;7.40;99.90;;;;;;5017609;28;20683;-89
2022/11/16 00:47:08;;;;;;;4.33;2.87;;;7.30;99.90;;;;;;5017292;28;20636;-88
2022/11/16 00:49:38;;;;;;;4.00;2.90;;;7.30;99.90;;;;;;5016870;28;20317;-88
2022/11/16 00:52:09;;;;;;;3.57;2.60;;;7.20;99.90;;;;;;5017656;28;20292;-89
2022/11/16 00:54:40;;;;;;;4.90;2.67;;;7.10;99.90;;;;;;5017577;28;20212;-89
2022/11/16 00:57:11;;;;;;;4.17;2.63;;;7.00;99.90;;;;;;5017107;28;20210;-89
2022/11/16 00:59:41;;;;;;;3.30;2.93;;;6.90;99.90;;;;;;5016506;28;20296;-89
2022/11/16 01:02:14;;;;;;;6.50;2.90;;;6.90;99.90;;;;;;5016828;28;20276;-88
2022/11/16 01:04:44;;;;;;;4.60;3.10;;;6.80;99.90;;;;;;5016731;28;20541;-89
2022/11/16 01:07:15;;;;;;;5.13;3.33;;;6.70;99.90;;;;;;5016881;28;20241;-89
2022/11/16 01:09:46;;;;;;;4.33;3.00;;;6.70;99.90;;;;;;5016454;28;20678;-89
2022/11/16 01:12:16;;;;;;;4.77;2.90;;;6.60;99.90;;;;;;5016042;28;20248;-89
2022/11/16 01:14:48;;;;;;;4.23;3.10;;;6.50;99.90;;;;;;5016628;28;20639;-90
2022/11/16 01:17:20;;;;;;;5.20;3.33;;;6.40;99.90;;;;;;5015228;28;20212;-90
2022/11/16 01:19:51;;;;;;;4.10;2.90;;;6.40;99.90;;;;;;5016014;28;20220;-89
2022/11/16 01:22:22;;;;;;;5.33;3.00;;;6.30;99.90;;;;;;5014735;28;20237;-90
2022/11/16 01:24:52;;;;;;;6.90;3.30;;;6.30;99.90;;;;;;5017375;28;20216;-89
2022/11/16 01:27:23;;;;;;;5.47;3.03;;;6.20;99.90;;;;;;5016694;28;20682;-89
2022/11/16 01:29:54;;;;;;;5.67;3.50;;;6.10;99.90;;;;;;5015879;28;20255;-89
2022/11/16 01:32:26;;;;;;;6.10;3.23;;;6.10;99.90;;;;;;5000511;28;20205;-89
2022/11/16 01:34:57;;;;;;;4.37;3.47;;;6.00;99.90;;;;;;5018711;28;20296;-89
2022/11/16 01:37:28;;;;;;;5.63;3.40;;;6.00;99.90;;;;;;5019337;28;20293;-88
2022/11/16 01:39:59;;;;;;;4.43;3.10;;;5.90;99.90;;;;;;5012194;28;20210;-87
2022/11/16 01:42:32;;;;;;;6.33;3.00;;;5.80;99.90;;;;;;5016323;28;20233;-88
2022/11/16 01:45:07;;;;;;;4.90;3.13;;;5.80;99.90;;;;;;4997854;28;20265;-89
2022/11/16 01:47:40;;;;;;;7.90;3.37;;;5.80;99.90;;;;;;5015013;28;20243;-88
2022/11/16 01:50:14;;;;;;;5.87;3.50;;;5.70;99.90;;;;;;5016619;28;20205;-89
2022/11/16 01:52:48;;;;;;;8.70;4.13;;;5.70;99.90;;;;;;5015309;28;20301;-88
2022/11/16 01:55:19;;;;;;;5.23;4.20;;;5.60;99.90;;;;;;4998796;28;20253;-88
2022/11/16 01:57:50;;;;;;;7.67;4.47;;;5.60;99.90;;;;;;4996284;28;20270;-88
2022/11/16 02:00:21;;;;;;;5.43;4.23;;;5.60;99.90;;;;;;5014676;28;20212;-89
2022/11/16 02:02:54;;;;;;;6.93;4.40;;;5.50;99.90;;;;;;5014718;28;20237;-89
2022/11/16 02:05:38;;;;;;;7.53;4.73;;;5.50;99.90;;;;;;5016140;28;20202;-90
2022/11/16 02:11:29;;;;;;;9.67;4.60;;;5.40;99.90;;;;;;5014592;28;20213;-88
2022/11/16 02:14:13;;;;;;;9.00;4.30;;;5.40;99.90;;;;;;5020665;28;20194;-89
2022/11/16 02:16:52;;;;;;;7.07;4.77;;;5.40;99.90;;;;;;5031935;28;20197;-88
2022/11/16 02:19:54;;;;;;;8.57;5.03;;;5.30;99.90;;;;;;4995977;28;20217;-89
2022/11/16 02:22:36;;;;;;;8.63;4.70;;;5.30;99.90;;;;;;5004032;28;20225;-89
2022/11/16 02:25:13;;;;;;;6.67;4.37;;;5.20;99.90;;;;;;5001430;28;20213;-88
2022/11/16 02:28:03;;;;;;;6.10;4.70;;;5.20;99.90;;;;;;5015740;28;20612;-88
2022/11/16 02:30:37;;;;;;;8.47;5.00;;;5.10;99.90;;;;;;5012794;28;20212;-89
2022/11/16 02:33:12;;;;;;;7.10;4.97;;;5.10;99.90;;;;;;5005425;28;20686;-90
2022/11/16 02:35:47;;;;;;;5.43;4.73;;;5.00;99.90;;;;;;5015865;28;20213;-89
2022/11/16 02:38:22;;;;;;;7.70;4.93;;;5.00;99.90;;;;;;5025495;28;20205;-90
2022/11/16 02:40:58;;;;;;;7.47;5.07;;;5.00;99.90;;;;;;5013508;28;20563;-89
2022/11/16 02:43:32;;;;;;;9.27;5.77;;;5.00;99.90;;;;;;5020054;28;20233;-90
2022/11/16 02:46:08;;;;;;;8.23;5.17;;;5.00;99.90;;;;;;5004049;28;20233;-89
2022/11/16 02:48:44;;;;;;;8.07;5.33;;;4.90;99.90;;;;;;5013991;28;20562;-87
2022/11/16 02:51:16;;;;;;;7.60;5.23;;;4.90;99.90;;;;;;5013448;28;20288;-90
2022/11/16 02:53:59;;;;;;;8.03;4.77;;;4.80;99.90;;;;;;5012501;28;20210;-90
2022/11/16 02:56:31;;;;;;;8.97;5.33;;;4.80;99.90;;;;;;5004707;28;20209;-89
2022/11/16 02:59:02;;;;;;;7.60;5.27;;;4.70;99.90;;;;;;5012176;28;20205;-90
2022/11/16 03:01:39;;;;;;;8.00;4.80;;;4.70;99.90;;;;;;5015353;28;20224;-89
2022/11/16 03:04:16;;;;;;;6.37;4.77;;;4.60;99.90;;;;;;5013425;28;20323;-89
2022/11/16 03:06:50;;;;;;;8.40;5.13;;;4.70;99.90;;;;;;5012518;28;20380;-88
2022/11/16 03:09:25;;;;;;;9.27;5.13;;;4.60;99.90;;;;;;5003200;28;20260;-89
2022/11/16 03:11:58;;;;;;;9.20;5.30;;;4.60;99.90;;;;;;4995839;28;20285;-90
2022/11/16 03:14:36;;;;;;;5.87;5.20;;;4.50;99.90;;;;;;4992899;28;20210;-89
2022/11/16 03:17:12;;;;;;;9.07;5.97;;;4.50;99.90;;;;;;5012378;28;20595;-89
2022/11/16 03:19:49;;;;;;;11.07;5.97;;;4.50;99.90;;;;;;5011606;28;20295;-89
2022/11/16 03:22:27;;;;;;;10.37;5.97;;;4.50;99.90;;;;;;5009915;28;20205;-90
2022/11/16 03:24:58;;;;;;;8.30;5.50;;;4.40;99.90;;;;;;5011820;28;20301;-90
2022/11/16 03:27:37;;;;;;;9.40;5.73;;;4.40;99.90;;;;;;5008964;28;20285;-85
2022/11/16 03:30:12;;;;;;;9.23;5.67;;;4.40;99.90;;;;;;5010696;28;20689;-91
2022/11/16 03:32:52;;;;;;;8.20;5.80;;;4.30;99.90;;;;;;5007057;28;20927;-90
2022/11/16 03:35:27;;;;;;;7.40;5.27;;;4.30;99.90;;;;;;5011563;28;20319;-90
2022/11/16 03:38:00;;;;;;;7.57;5.80;;;4.20;99.90;;;;;;5009073;28;20287;-89
2022/11/16 03:40:35;;;;;;;9.63;5.83;;;4.20;99.90;;;;;;5011584;28;20435;-89
2022/11/16 03:43:09;;;;;;;7.63;5.43;;;4.20;99.90;;;;;;5013715;28;20232;-91
2022/11/16 03:45:40;;;;;;;8.90;6.10;;;4.20;99.90;;;;;;5024157;28;20209;-90
2022/11/16 03:48:14;;;;;;;13.17;5.70;;;4.10;99.90;;;;;;5025827;28;20228;-90
2022/11/16 03:50:46;;;;;;;6.90;5.83;;;4.10;99.90;;;;;;5019225;28;20266;-90
2022/11/16 03:53:17;;;;;;;7.83;5.70;;;4.10;99.90;;;;;;5010890;28;20260;-90
2022/11/16 03:55:48;;;;;;;11.23;6.03;;;4.10;99.90;;;;;;5029540;28;20242;-90
2022/11/16 03:58:19;;;;;;;7.20;5.77;;;4.00;99.90;;;;;;5020026;28;20229;-89
2022/11/16 04:00:50;;;;;;;11.17;6.63;;;4.00;99.90;;;;;;4998171;28;20217;-90
2022/11/16 04:03:23;;;;;;;10.50;6.87;;;4.00;99.90;;;;;;5007831;28;20241;-90
2022/11/16 04:26:00;;;;;;;8.83;6.70;;;3.80;99.90;;;;;;4949963;28;20614;-91
2022/11/16 04:28:33;;;;;;;10.97;7.10;;;3.70;99.90;;;;;;5000289;28;20296;-90
2022/11/16 04:39:33;;;;;;;10.83;6.70;;;3.60;99.90;;;;;;5012533;28;20221;-91
2022/11/16 04:42:18;;;;;;;10.17;6.70;;;3.60;99.90;;;;;;5001409;28;20317;-91
2022/11/16 04:47:36;;;;;;;8.50;6.70;;;3.50;99.90;;;;;;5008489;28;20203;-91
2022/11/16 04:50:09;;;;;;;9.03;6.53;;;3.50;99.90;;;;;;5013416;28;20304;-91
2022/11/16 04:52:45;;;;;;;10.43;6.87;;;3.50;99.90;;;;;;5014302;28;20240;-91
2022/11/16 04:55:17;;;;;;;8.60;6.03;;;3.50;99.90;;;;;;5014389;28;20629;-90
2022/11/16 04:57:50;;;;;;;9.37;6.70;;;3.50;99.90;;;;;;5010176;28;20265;-89
2022/11/16 05:00:22;;;;;;;10.33;6.87;;;3.40;99.90;;;;;;5009600;28;20288;-91
2022/11/16 05:02:53;;;;;;;9.43;6.73;;;3.40;99.90;;;;;;5017382;28;20228;-91
2022/11/16 05:05:33;;;;;;;10.00;6.23;;;3.40;99.90;;;;;;5023047;28;20206;-91
2022/11/16 05:08:06;;;;;;;10.40;7.20;;;3.40;99.90;;;;;;5016875;28;20233;-90
2022/11/16 05:10:38;;;;;;;9.70;7.37;;;3.40;99.90;;;;;;5018415;28;20202;-91
2022/11/16 05:13:09;;;;;;;9.60;7.00;;;3.30;99.90;;;;;;5015826;28;20245;-91
2022/11/16 05:15:40;;;;;;;10.50;6.67;;;3.30;99.90;;;;;;5016707;28;20214;-90
2022/11/16 05:18:13;;;;;;;10.90;7.07;;;3.30;99.90;;;;;;5016506;28;20295;-90
2022/11/16 05:21:03;;;;;;;10.70;7.53;;;3.30;99.90;;;;;;5014147;28;20250;-91
2022/11/16 05:26:25;;;;;;;10.00;7.20;;;3.20;99.90;;;;;;5001498;28;20245;-90
2022/11/16 05:28:56;;;;;;;12.33;7.27;;;3.20;99.90;;;;;;5016726;28;20240;-90
2022/11/16 05:31:27;;;;;;;12.07;7.90;;;3.20;99.90;;;;;;5016594;28;20210;-91
2022/11/16 05:33:59;;;;;;;13.60;7.63;;;3.20;99.90;;;;;;5016115;28;20293;-90
2022/11/16 05:36:30;;;;;;;10.73;7.97;;;3.20;99.90;;;;;;4997037;28;20224;-90
2022/11/16 05:39:04;;;;;;;10.07;7.60;;;3.20;99.90;;;;;;4997022;28;20735;-90
2022/11/16 05:41:35;;;;;;;11.87;7.87;;;3.10;99.90;;;;;;5017879;28;20220;-91
2022/11/16 05:44:07;;;;;;;10.97;8.00;;;3.10;99.90;;;;;;5016581;28;20913;-93
2022/11/16 05:46:38;;;;;;;10.17;7.83;;;3.00;99.90;;;;;;5022747;28;20733;-90
2022/11/16 05:49:10;;;;;;;12.30;8.43;;;3.00;99.90;;;;;;5018852;28;20209;-90
2022/11/16 05:51:44;;;;;;;11.00;9.00;;;3.00;99.90;;;;;;5019215;28;20198;-91
2022/11/16 05:54:19;;;;;;;9.90;7.87;;;3.00;99.90;;;;;;5002911;28;20240;-88
2022/11/16 05:56:50;;;;;;;8.67;7.37;;;3.00;99.90;;;;;;5015993;28;20300;-91
2022/11/16 05:59:23;;;;;;;10.90;8.00;;;3.00;99.90;;;;;;5031115;28;20197;-92
2022/11/16 06:01:54;;;;;;;11.50;8.10;;;3.00;99.90;;;;;;5043134;28;20239;-91
2022/11/16 06:04:26;;;;;;;13.00;8.73;;;3.00;99.90;;;;;;5025838;28;20280;-91
2022/11/16 06:06:57;;;;;;;11.17;7.93;;;3.00;99.90;;;;;;5031812;28;20277;-92
2022/11/16 06:09:30;;;;;;;10.47;8.03;;;3.00;99.90;;;;;;5033869;28;20213;-92
2022/11/16 06:12:01;;;;;;;9.77;8.00;;;3.00;99.90;;;;;;5031561;28;20178;-92
2022/11/16 06:14:32;;;;;;;11.40;8.20;;;3.00;99.90;;;;;;5031492;28;20674;-91
2022/11/16 06:17:03;;;;;;;10.27;7.63;;;2.90;99.90;;;;;;5030954;28;20213;-90
2022/11/16 06:19:36;;;;;;;11.07;7.53;;;2.90;99.90;;;;;;5030209;28;20210;-91
2022/11/16 06:22:07;;;;;;;10.47;7.57;;;2.90;99.90;;;;;;5035232;28;20205;-90
2022/11/16 06:24:40;;;;;;;14.03;8.20;;;2.90;99.90;;;;;;5025111;28;20228;-91
2022/11/16 06:27:11;;;;;;;11.00;8.17;;;2.90;99.90;;;;;;5017640;28;20190;-91
2022/11/16 06:29:41;;;;;;;11.97;7.67;;;2.90;99.90;;;;;;5016317;28;20216;-90
2022/11/16 06:32:13;;;;;;;11.00;8.03;;;2.80;99.90;;;;;;5014884;28;20240;-90
2022/11/16 06:34:44;;;;;;;10.63;7.60;;;2.80;99.90;;;;;;5014752;28;20244;-91
2022/11/16 06:37:15;;;;;;;13.13;8.60;;;2.80;99.90;;;;;;5014932;28;20205;-89
2022/11/16 06:39:47;;;;;;;10.77;8.20;;;2.80;99.90;;;;;;5014213;28;20627;-90
2022/11/16 06:42:19;;;;;;;11.97;8.77;;;2.70;99.90;;;;;;5012940;28;20202;-90
2022/11/16 06:44:50;;;;;;;12.13;8.40;;;2.70;99.90;;;;;;5014416;28;20273;-90
2022/11/16 06:47:21;;;;;;;13.37;8.53;;;2.80;99.90;;;;;;5015199;28;20273;-90
2022/11/16 06:49:52;;;;;;;11.00;8.43;;;2.70;99.90;;;;;;5003308;28;20273;-91
2022/11/16 06:52:22;;;;;;;10.93;8.70;;;2.80;99.90;;;;;;5013457;28;20212;-91
2022/11/16 06:54:55;;;;;;;13.57;9.37;;;2.80;99.90;;;;;;5017657;28;20197;-90
2022/11/16 06:57:26;;;;;;;14.90;9.90;;;2.70;99.90;;;;;;5015927;28;20233;-90
2022/11/16 06:59:57;;;;;;;13.93;8.50;;;2.70;99.90;;;;;;5012308;28;20216;-90
2022/11/16 07:02:29;;;;;;;12.60;9.20;;;2.70;99.90;;;;;;5013389;28;20269;-90
2022/11/16 07:05:00;;;;;;;11.33;9.30;;;2.70;99.90;;;;;;5014911;28;20233;-89
2022/11/16 07:07:33;;;;;;;15.83;9.23;;;2.70;99.90;;;;;;5016723;28;20296;-91
2022/11/16 07:10:09;;;;;;;13.77;9.67;;;2.70;99.90;;;;;;5019260;28;20285;-90
2022/11/16 07:12:41;;;;;;;12.83;9.57;;;2.70;99.90;;;;;;5010420;28;20237;-91
2022/11/16 07:15:12;;;;;;;15.87;9.40;;;2.70;99.90;;;;;;4996402;28;20667;-90
2022/11/16 07:17:44;;;;;;;13.20;9.80;;;2.70;99.90;;;;;;4996810;28;22261;-91
2022/11/16 07:20:17;;;;;;;15.33;10.23;;;2.60;99.90;;;;;;5014116;28;20229;-90
2022/11/16 07:22:48;;;;;;;14.87;9.83;;;2.60;99.90;;;;;;5013274;28;20636;-90
2022/11/16 07:25:21;;;;;;;14.27;9.40;;;2.60;99.90;;;;;;5006417;28;20320;-90
2022/11/16 07:27:53;;;;;;;14.40;10.23;;;2.60;99.90;;;;;;5013725;28;20293;-90
2022/11/16 07:30:24;;;;;;;14.37;9.63;;;2.60;99.90;;;;;;5017624;28;20261;-90
2022/11/16 07:33:00;;;;;;;16.20;9.73;;;2.50;99.90;;;;;;5013071;28;20237;-91
2022/11/16 07:35:31;;;;;;;11.80;9.30;;;2.50;99.90;;;;;;5025696;28;20209;-89
2022/11/16 07:38:02;;;;;;;13.67;9.90;;;2.40;99.90;;;;;;5029668;28;20212;-90
2022/11/16 07:40:35;;;;;;;15.23;10.87;;;2.40;99.90;;;;;;5014036;28;20213;-90
2022/11/16 07:43:07;;;;;;;12.93;9.83;;;2.40;99.90;;;;;;5014152;28;20224;-90
2022/11/16 07:45:38;;;;;;;12.60;9.83;;;2.40;99.90;;;;;;5017058;28;20237;-90
2022/11/16 07:48:11;;;;;;;13.93;9.43;;;2.40;99.90;;;;;;5014506;28;20285;-90
2022/11/16 07:50:42;;;;;;;16.33;9.77;;;2.30;99.90;;;;;;5016861;28;20297;-90
2022/11/16 07:53:13;;;;;;;14.83;10.77;;;2.30;99.90;;;;;;5014996;28;20244;-90
2022/11/16 07:55:52;;;;;;;13.40;9.70;;;2.30;99.90;;;;;;5014391;28;20233;-90
2022/11/16 07:58:24;;;;;;;16.97;10.23;;;2.20;99.90;;;;;;5009845;28;20206;-90
2022/11/16 08:00:54;;;;;;;16.63;10.83;;;2.20;99.90;;;;;;5012759;28;20293;-89
2022/11/16 08:03:25;;;;;;;16.63;11.13;;;2.20;99.90;;;;;;5014501;28;20685;-91
2022/11/16 08:06:00;;;;;;;14.60;9.67;;;2.20;99.90;;;;;;5022419;28;20268;-90
2022/11/16 08:08:32;;;;;;;14.97;9.77;;;2.10;99.90;;;;;;5021093;28;20252;-90
2022/11/16 08:11:08;;;;;;;13.93;10.83;;;2.00;99.90;;;;;;5012297;28;20469;-89
2022/11/16 08:13:41;;;;;;;14.20;10.13;;;2.10;99.90;;;;;;5013606;28;20209;-89
2022/11/16 08:16:16;;;;;;;14.23;10.17;;;2.10;99.90;;;;;;5012272;28;20296;-90
2022/11/16 08:18:47;;;;;;;14.67;10.77;;;2.10;99.90;;;;;;5015625;28;20256;-90
2022/11/16 08:21:19;;;;;;;14.90;10.03;;;2.10;99.90;;;;;;5014669;28;20210;-89
2022/11/16 08:23:51;;;;;;;15.60;10.57;;;2.10;99.90;;;;;;5014568;28;20202;-90
2022/11/16 08:26:28;;;;;;;15.90;10.20;;;2.00;99.90;;;;;;5002316;28;21005;-90
2022/11/16 08:28:59;;;;;;;14.77;10.23;;;2.00;99.90;;;;;;5016062;28;20237;-90
2022/11/16 08:31:31;;;;;;;14.20;9.97;;;2.00;99.90;;;;;;5014838;28;20293;-90
2022/11/16 08:34:02;;;;;;;17.00;10.03;;;2.00;99.90;;;;;;5013147;28;20312;-90
2022/11/16 08:36:33;;;;;;;13.17;8.97;;;2.00;99.90;;;;;;5015542;28;20630;-90
2022/11/16 08:39:04;;;;;;;12.70;9.90;;;2.00;99.90;;;;;;5013769;28;20209;-90
2022/11/16 08:41:40;;;;;;;16.33;10.43;;;2.00;99.90;;;;;;5008440;28;20228;-90
2022/11/16 08:44:12;;;;;;;14.60;9.93;;;2.00;99.90;;;;;;5020591;28;20245;-89
2022/11/16 08:46:44;;;;;;;15.43;9.83;;;1.90;99.90;;;;;;5015497;28;20574;-90
2022/11/16 08:49:15;;;;;;;13.80;9.47;;;1.90;99.90;;;;;;5015586;28;20320;-90
2022/11/16 08:51:46;;;;;;;12.73;9.07;;;1.90;99.90;;;;;;5015786;28;20304;-91
2022/11/16 08:54:17;;;;;;;14.87;9.73;;;1.90;99.90;;;;;;5014114;28;20213;-90
2022/11/16 08:56:51;;;;;;;13.87;9.13;;;1.90;99.90;;;;;;5015104;28;20237;-90
2022/11/16 08:59:22;;;;;;;15.87;9.80;;;1.80;99.90;;;;;;5014602;28;20213;-91
2022/11/16 09:01:54;;;;;;;15.67;11.20;;;1.80;99.90;;;;;;5015046;28;20233;-90
2022/11/16 09:04:26;;;;;;;18.73;12.33;;;1.80;99.90;;;;;;5014635;28;20206;-89
2022/11/16 09:07:03;;;;;;;17.37;12.80;;;1.80;99.90;;;;;;5015108;28;20252;-90
2022/11/16 09:09:34;;;;;;;19.40;13.13;;;1.80;99.90;;;;;;5015501;28;20229;-90
2022/11/16 09:12:06;;;;;;;18.43;12.60;;;1.80;99.90;;;;;;5013946;28;20255;-89
2022/11/16 09:14:37;;;;;;;16.20;11.53;;;1.70;99.90;;;;;;5015099;28;20245;-90
2022/11/16 09:17:08;;;;;;;19.70;10.73;;;1.80;99.90;;;;;;5016186;28;20277;-90
2022/11/16 09:19:40;;;;;;;16.53;10.67;;;1.80;99.90;;;;;;5014841;28;20214;-90
2022/11/16 09:22:11;;;;;;;16.37;11.17;;;1.80;99.90;;;;;;5013385;28;20237;-90
2022/11/16 09:24:43;;;;;;;14.63;10.20;;;1.70;99.90;;;;;;5016266;28;20218;-91
2022/11/16 09:27:16;;;;;;;15.00;10.17;;;1.70;99.90;;;;;;5007246;28;20316;-90
2022/11/16 09:29:47;;;;;;;17.27;11.07;;;1.60;99.90;;;;;;5017161;28;20241;-90
2022/11/16 09:32:18;;;;;;;14.30;9.73;;;1.60;99.90;;;;;;5014597;28;20206;-90
2022/11/16 09:34:49;;;;;;;15.07;10.90;;;1.60;99.90;;;;;;5014384;28;20240;-90
2022/11/16 09:37:21;;;;;;;14.70;10.53;;;1.50;99.90;;;;;;5015394;28;20244;-90
2022/11/16 09:39:52;;;;;;;16.50;10.37;;;1.50;99.90;;;;;;5016096;28;20210;-90
2022/11/16 09:42:38;;;;;;;16.07;10.73;;;1.50;99.90;;;;;;5015547;28;20226;-89
2022/11/16 09:45:16;;;;;;;16.00;10.33;;;1.40;99.90;;;;;;5015855;28;20205;-90
2022/11/16 09:47:52;;;;;;;14.67;10.83;;;1.50;99.90;;;;;;4996282;28;20269;-90
2022/11/16 09:50:40;;;;;;;16.23;10.60;;;1.50;99.90;;;;;;5013875;28;20576;-91
2022/11/16 09:53:33;;;;;;;16.00;11.03;;;1.50;99.90;;;;;;5015186;28;20237;-90
2022/11/16 09:56:07;;;;;;;16.03;11.00;;;1.50;99.90;;;;;;5015836;28;20221;-90
2022/11/16 09:58:49;;;;;;;18.53;11.13;;;1.50;99.90;;;;;;5016033;28;20235;-90
2022/11/16 10:01:27;;;;;;;20.37;12.93;;;1.50;99.90;;;;;;5015033;28;20246;-90
2022/11/16 10:04:05;;;;;;;16.00;10.77;;;1.50;99.90;;;;;;5014676;28;20364;-90
2022/11/16 10:06:46;;;;;;;17.57;11.67;;;1.50;99.90;;;;;;5015541;28;20297;-90
2022/11/16 10:09:18;;;;;;;15.37;11.10;;;1.50;99.90;;;;;;5014611;28;20227;-91
2022/11/16 10:12:21;;;;;;;17.37;11.27;;;1.40;99.90;;;;;;5015144;28;20242;-90
2022/11/16 10:15:27;;;;;;;16.67;11.13;;;1.40;99.90;;;;;;5015322;28;20205;-91
2022/11/16 10:18:15;;;;;;;15.57;11.90;;;1.40;99.90;;;;;;5012690;28;20743;-89
2022/11/16 10:20:58;;;;;;;16.90;11.67;;;1.30;99.90;;;;;;5020722;28;20245;-91
2022/11/16 10:23:39;;;;;;;17.57;12.23;;;1.30;99.90;;;;;;5005912;28;20241;-90
2022/11/16 10:26:21;;;;;;;16.87;11.83;;;1.30;99.90;;;;;;5021266;28;20241;-91
2022/11/16 10:29:16;;;;;;;19.57;12.27;;;1.30;99.90;;;;;;5016915;28;20241;-91
2022/11/16 10:32:01;;;;;;;15.47;11.17;;;1.30;99.90;;;;;;5000384;28;20234;-90
2022/11/16 10:34:41;;;;;;;18.00;12.40;;;1.30;99.90;;;;;;5004709;28;20228;-90
2022/11/16 10:37:15;;;;;;;17.20;12.17;;;1.20;99.90;;;;;;5015296;28;20637;-90
2022/11/16 10:39:49;;;;;;;20.77;12.53;;;1.20;99.90;;;;;;5014982;28;20263;-90
2022/11/16 10:42:27;;;;;;;17.63;12.03;;;1.30;99.90;;;;;;5002739;28;20233;-90
2022/11/16 10:45:05;;;;;;;14.37;11.37;;;1.20;99.90;;;;;;5014368;28;20241;-91
2022/11/16 10:47:45;;;;;;;14.87;11.63;;;1.20;99.90;;;;;;5015364;28;20272;-90
2022/11/16 10:50:31;;;;;;;16.97;11.13;;;1.30;99.90;;;;;;5014128;28;20225;-91
2022/11/16 10:53:02;;;;;;;14.90;11.47;;;1.20;99.90;;;;;;5014704;28;20233;-92
2022/11/16 10:55:34;;;;;;;16.27;10.90;;;1.20;99.90;;;;;;5015054;28;20248;-90
2022/11/16 10:58:07;;;;;;;17.30;11.37;;;1.10;99.90;;;;;;5014504;28;20305;-91
2022/11/16 11:00:45;;;;;;;15.17;10.47;;;1.10;99.90;;;;;;5014469;28;20263;-95
2022/11/16 11:03:31;;;;;;;15.77;11.53;;;1.10;99.90;;;;;;5015772;28;20713;-90
2022/11/16 11:06:03;;;;;;;16.83;11.07;;;1.00;99.90;;;;;;5013476;28;20245;-91
2022/11/16 11:08:34;;;;;;;15.50;11.57;;;1.00;99.90;;;;;;5013728;28;20249;-90
2022/11/16 11:14:05;;;;;;;16.07;11.60;;;1.00;99.90;;;;;;4994699;28;20213;-90
2022/11/16 11:16:36;;;;;;;15.83;11.17;;;1.00;99.90;;;;;;5004502;28;20709;-90
2022/11/16 11:19:28;;;;;;;16.17;11.00;;;1.00;99.90;;;;;;5010115;28;20220;-90
2022/11/16 11:22:00;;;;;;;15.90;10.17;;;1.00;99.90;;;;;;5013504;28;20283;-96
2022/11/16 11:24:31;;;;;;;14.70;10.47;;;1.00;99.90;;;;;;5015276;28;20265;-91
2022/11/16 11:27:14;;;;;;;13.07;9.73;;;0.90;99.90;;;;;;5015332;28;20241;-91
2022/11/16 11:29:52;;;;;;;14.83;9.80;;;0.90;99.90;;;;;;5008717;28;20206;-90
2022/11/16 11:32:26;;;;;;;12.97;9.53;;;0.90;99.90;;;;;;5002856;28;20244;-90
2022/11/16 11:35:00;;;;;;;16.40;10.33;;;0.90;99.90;;;;;;5015063;28;20256;-90
2022/11/16 11:37:33;;;;;;;13.50;10.30;;;0.90;99.90;;;;;;5003711;28;20284;-91
2022/11/16 11:40:19;;;;;;;12.63;9.83;;;0.90;99.90;;;;;;5014186;28;20677;-90
2022/11/16 11:42:58;;;;;;;14.30;9.97;;;0.80;99.90;;;;;;5013029;28;20244;-90
2022/11/16 11:45:44;;;;;;;13.30;9.70;;;0.90;99.90;;;;;;4998320;28;20663;-90
2022/11/16 11:48:29;;;;;;;12.37;9.33;;;0.80;99.90;;;;;;5006859;28;20264;-91
2022/11/16 11:51:12;;;;;;;11.73;8.87;;;0.80;99.90;;;;;;5013787;28;20240;-91
2022/11/16 11:53:50;;;;;;;14.57;9.53;;;0.80;99.90;;;;;;5013567;28;20292;-90
2022/11/16 11:56:22;;;;;;;13.63;9.27;;;0.80;99.90;;;;;;5016107;28;20209;-91
2022/11/16 11:58:54;;;;;;;17.53;10.63;;;0.80;99.90;;;;;;5018232;28;20288;-91
2022/11/16 12:01:51;;;;;;;12.20;7.93;;;0.80;99.90;;;;;;5018320;28;20304;-91
2022/11/16 12:04:55;;;;;;;14.07;8.70;;;0.80;99.90;;;;;;5018357;28;20240;-91
2022/11/16 12:07:54;;;;;;;48.27;10.27;;;0.80;99.90;;;;;;5017467;28;20318;-91
2022/11/16 12:10:36;;;;;;;13.13;9.00;;;0.80;99.90;;;;;;5018255;28;20236;-91
2022/11/16 12:13:42;;;;;;;14.77;9.20;;;0.80;99.90;;;;;;5014837;28;20261;-92
2022/11/16 12:16:21;;;;;;;13.30;9.27;;;0.80;99.90;;;;;;5028660;28;20261;-92
2022/11/16 12:19:06;;;;;;;13.03;8.97;;;0.80;99.90;;;;;;5036938;28;20201;-91
2022/11/16 12:21:49;;;;;;;11.00;8.63;;;0.80;99.90;;;;;;5029636;28;20213;-93
2022/11/16 12:24:52;;;;;;;12.93;8.93;;;0.80;99.90;;;;;;5021248;28;20221;-91
2022/11/16 12:27:37;;;;;;;13.33;9.43;;;0.80;99.90;;;;;;5006459;28;20689;-91
2022/11/16 12:30:14;;;;;;;10.90;8.70;;;0.70;99.90;;;;;;5017606;28;20295;-91
2022/11/16 12:33:00;;;;;;;12.23;8.80;;;0.70;99.90;;;;;;5024655;28;20209;-91
2022/11/16 12:35:45;;;;;;;13.10;8.47;;;0.70;99.90;;;;;;5037837;28;20196;-90
2022/11/16 12:38:29;;;;;;;11.67;8.33;;;0.70;99.90;;;;;;5026759;28;20201;-91
2022/11/16 12:41:20;;;;;;;11.87;7.83;;;0.70;99.90;;;;;;5028136;28;20273;-91
2022/11/16 12:44:01;;;;;;;12.03;8.53;;;0.70;99.90;;;;;;5026156;28;20237;-91
2022/11/16 12:46:44;;;;;;;11.10;7.70;;;0.70;99.90;;;;;;5019451;28;20240;-90
2022/11/16 12:49:51;;;;;;;11.30;8.53;;;0.70;99.90;;;;;;5021958;28;20244;-91
2022/11/16 12:52:47;;;;;;;10.63;8.20;;;0.60;99.90;;;;;;5016454;28;20236;-91
2022/11/16 12:55:27;;;;;;;12.10;8.27;;;0.60;99.90;;;;;;4997179;28;20297;-91
2022/11/16 12:58:10;;;;;;;12.20;7.80;;;0.70;99.90;;;;;;5008442;28;20293;-91
2022/11/16 13:01:01;;;;;;;10.53;7.50;;;0.60;99.90;;;;;;5018855;28;20248;-90
2022/11/16 13:03:39;;;;;;;10.27;7.90;;;0.60;99.90;;;;;;5015783;28;20216;-91
2022/11/16 13:06:15;;;;;;;10.67;7.83;;;0.60;99.90;;;;;;5010724;28;20210;-90
2022/11/16 13:08:56;;;;;;;10.03;7.07;;;0.60;99.90;;;;;;4996973;28;20328;-91
2022/11/16 13:11:32;;;;;;;10.63;7.83;;;0.60;99.90;;;;;;5004876;28;20217;-90
2022/11/16 13:14:11;;;;;;;10.60;7.03;;;0.60;99.90;;;;;;5015644;28;20236;-92
2022/11/16 13:16:45;;;;;;;7.97;6.47;;;0.60;99.90;;;;;;5000725;28;20215;-91
2022/11/16 13:19:17;;;;;;;10.20;7.37;;;0.50;99.90;;;;;;5015218;28;20292;-91
2022/11/16 13:21:56;;;;;;;10.53;7.53;;;0.50;99.90;;;;;;5016648;28;20289;-90
2022/11/16 13:24:38;;;;;;;10.63;7.40;;;0.60;99.90;;;;;;5018263;28;20214;-91
2022/11/16 13:27:32;;;;;;;8.80;5.97;;;0.60;99.90;;;;;;5017988;28;20289;-91
2022/11/16 13:30:16;;;;;;;11.27;7.03;;;0.50;99.90;;;;;;5012947;28;20209;-91
2022/11/16 13:33:05;;;;;;;8.47;6.47;;;0.50;99.90;;;;;;5004937;28;20248;-91
2022/11/16 13:35:38;;;;;;;9.77;6.83;;;0.50;99.90;;;;;;5017670;28;20293;-91
2022/11/16 13:38:12;;;;;;;11.03;6.90;;;0.50;99.90;;;;;;5019044;28;20653;-91
2022/11/16 13:40:45;;;;;;;8.03;6.20;;;0.50;99.90;;;;;;5018814;28;20201;-91
2022/11/16 13:43:21;;;;;;;9.90;6.63;;;0.50;99.90;;;;;;5016447;28;20316;-91
2022/11/16 13:45:57;;;;;;;8.63;6.47;;;0.50;99.90;;;;;;5020271;28;20205;-91
2022/11/16 13:48:34;;;;;;;9.33;6.67;;;0.50;99.90;;;;;;5016541;28;20781;-91
2022/11/16 13:51:09;;;;;;;10.40;6.30;;;0.50;99.90;;;;;;5015899;28;20648;-91
2022/11/16 13:53:47;;;;;;;11.03;6.50;;;0.50;99.90;;;;;;5016073;28;20306;-91
2022/11/16 13:56:50;;;;;;;9.20;6.67;;;0.40;99.90;;;;;;5015566;28;20209;-90
2022/11/16 13:59:26;;;;;;;9.47;6.93;;;0.40;99.90;;;;;;5015581;28;20662;-91
2022/11/16 14:02:00;;;;;;;12.73;7.23;;;0.40;99.90;;;;;;5015908;28;20650;-93
2022/11/16 14:04:58;;;;;;;8.87;6.50;;;0.40;99.90;;;;;;5009480;28;20280;-90
2022/11/16 14:07:48;;;;;;;9.07;6.47;;;0.40;99.90;;;;;;5006271;28;20210;-91
2022/11/16 14:10:56;;;;;;;8.23;6.10;;;0.40;99.90;;;;;;4996439;28;20753;-90
2022/11/16 14:13:43;;;;;;;9.03;6.53;;;0.40;99.90;;;;;;5011938;28;20312;-91
2022/11/16 14:16:34;;;;;;;11.63;7.10;;;0.40;99.90;;;;;;5015050;28;20284;-92